
Distance (Route):
Temperature : -39.4°C
Humidity : 20.5%
Pressure : 0hPa| Receiver | Frames | First received | Last received |
|---|---|---|---|
| LZ4TU-5 | 72 | 2026-09-05 11:39:42 | 2026-09-05 12:50:17 |
| Receiver | Date | Latitude | Longitude | Direction | Speed | Altitude | Climb | Temperature | Humidity | Pressure | Voltage | Killtimer | Uptime | BKT | XDATA |
|---|---|---|---|---|---|---|---|---|---|---|---|---|---|---|---|
| LZ4TU-5 | 2026-09-05 12:50:17 | 43.24777 | 20.46926 | 106° | 58km/h | 10341m | -19.9m/s | -39.4°C | 20.5% | 0hPa | 0V | 00:00:00 | 00:00:00 | 00:00:00 | |
| LZ4TU-5 | 2026-09-05 12:50:12 | 43.24795 | 20.46825 | 105° | 58km/h | 10444m | -19.9m/s | -40.3°C | 21.5% | 0hPa | 0V | 00:00:00 | 00:00:00 | 00:00:00 | |
| LZ4TU-5 | 2026-09-05 12:47:36 | 43.24884 | 20.43836 | 96° | 68km/h | 13952m | -25.7m/s | -64.2°C | 6.0% | 0hPa | 0V | 00:00:00 | 00:00:00 | 00:00:00 | |
| LZ4TU-5 | 2026-09-05 12:47:32 | 43.24895 | 20.43744 | 103° | 69km/h | 14057m | -26.0m/s | -64.2°C | 5.3% | 0hPa | 0V | 00:00:00 | 00:00:00 | 00:00:00 | |
| LZ4TU-5 | 2026-09-05 12:44:01 | 43.24858 | 20.40983 | 108° | 9km/h | 20987m | -42.2m/s | -54.3°C | 0.0% | 0hPa | 0V | 00:00:00 | 00:00:00 | 00:00:00 | |
| LZ4TU-5 | 2026-09-05 12:43:58 | 43.24861 | 20.40974 | 154° | 7km/h | 21161m | -43.3m/s | -54.6°C | 0.0% | 0hPa | 0V | 00:00:00 | 00:00:00 | 00:00:00 | |
| LZ4TU-5 | 2026-09-05 12:43:40 | 43.24839 | 20.40931 | 80° | 18km/h | 21915m | -45.5m/s | -54.5°C | 0% | 0hPa | 0V | 00:00:00 | 00:00:00 | 00:00:00 | |
| LZ4TU-5 | 2026-09-05 12:43:21 | 43.24808 | 20.40873 | 48° | 26km/h | 22802m | -47.0m/s | -54.8°C | 0.0% | 0hPa | 0V | 00:00:00 | 00:00:00 | 00:00:00 | |
| LZ4TU-5 | 2026-09-05 12:43:14 | 43.24787 | 20.40834 | 44° | 9km/h | 23127m | -47.6m/s | -53.9°C | 0.0% | 0hPa | 0V | 00:00:00 | 00:00:00 | 00:00:00 | |
| LZ4TU-5 | 2026-09-05 12:43:07 | 43.24774 | 20.40821 | 28° | 9km/h | 23464m | -50.1m/s | -52.9°C | 0.0% | 0hPa | 0V | 00:00:00 | 00:00:00 | 00:00:00 | |
| LZ4TU-5 | 2026-09-05 12:43:03 | 43.24766 | 20.40816 | 5° | 11km/h | 23665m | -49.7m/s | -50.9°C | 0.0% | 0hPa | 0V | 00:00:00 | 00:00:00 | 00:00:00 | |
| LZ4TU-5 | 2026-09-05 12:42:57 | 43.24745 | 20.40820 | 349° | 18km/h | 23961m | -50.0m/s | -51.2°C | 0.0% | 0hPa | 0V | 00:00:00 | 00:00:00 | 00:00:00 | |
| LZ4TU-5 | 2026-09-05 12:40:21 | 43.24658 | 20.40960 | 296° | 11km/h | 31935m | 7.4m/s | -41.1°C | 2.5% | 0hPa | 0V | 00:00:00 | 00:00:00 | 00:00:00 | |
| LZ4TU-5 | 2026-09-05 12:40:16 | 43.24659 | 20.40962 | 182° | 7km/h | 31899m | 5.3m/s | -41.2°C | 2.5% | 0hPa | 0V | 00:00:00 | 00:00:00 | 00:00:00 | |
| LZ4TU-5 | 2026-09-05 12:37:56 | 43.24664 | 20.41595 | 222° | 31km/h | 30903m | 4.1m/s | -42.2°C | 2.0% | 0hPa | 0V | 00:00:00 | 00:00:00 | 00:00:00 | |
| LZ4TU-5 | 2026-09-05 12:37:52 | 43.24671 | 20.41611 | 39° | 5km/h | 30874m | 8.7m/s | -42.2°C | 2.0% | 0hPa | 0V | 00:00:00 | 00:00:00 | 00:00:00 | |
| LZ4TU-5 | 2026-09-05 12:37:47 | 43.24669 | 20.41595 | 270° | 11km/h | 30838m | 6.8m/s | -42.6°C | 2.0% | 0hPa | 0V | 00:00:00 | 00:00:00 | 00:00:00 | |
| LZ4TU-5 | 2026-09-05 12:37:42 | 43.24690 | 20.41616 | 157° | 22km/h | 30805m | 5.2m/s | -43.1°C | 1.9% | 0hPa | 0V | 00:00:00 | 00:00:00 | 00:00:00 | |
| LZ4TU-5 | 2026-09-05 12:35:16 | 43.24577 | 20.41716 | 302° | 11km/h | 29781m | 7.3m/s | -43.6°C | 2.3% | 0hPa | 0V | 00:00:00 | 00:00:00 | 00:00:00 | |
| LZ4TU-5 | 2026-09-05 12:33:01 | 43.24725 | 20.42011 | 197° | 9km/h | 28799m | 7.8m/s | -44.0°C | 1.9% | 0hPa | 0V | 00:00:00 | 00:00:00 | 00:00:00 | |
| LZ4TU-5 | 2026-09-05 12:32:57 | 43.24729 | 20.42017 | 325° | 9km/h | 28768m | 6.0m/s | -43.9°C | 0% | 0hPa | 0V | 00:00:00 | 00:00:00 | 00:00:00 | |
| LZ4TU-5 | 2026-09-05 12:29:53 | 43.25043 | 20.41462 | 106° | 18km/h | 27504m | 6.3m/s | -45.0°C | 2.1% | 0hPa | 0V | 00:00:00 | 00:00:00 | 00:00:00 | |
| LZ4TU-5 | 2026-09-05 12:29:48 | 43.25041 | 20.41443 | 117° | 15km/h | 27472m | 5.6m/s | -44.9°C | 2.0% | 0hPa | 0V | 00:00:00 | 00:00:00 | 00:00:00 | |
| LZ4TU-5 | 2026-09-05 12:27:29 | 43.25175 | 20.40929 | 6° | 24km/h | 26536m | 5.3m/s | -44.8°C | 1.8% | 0hPa | 0V | 00:00:00 | 00:00:00 | 00:00:00 | |
| LZ4TU-5 | 2026-09-05 12:27:24 | 43.25170 | 20.40932 | 171° | 16km/h | 26502m | 8.6m/s | -44.6°C | 1.8% | 0hPa | 0V | 00:00:00 | 00:00:00 | 00:00:00 | |
| LZ4TU-5 | 2026-09-05 12:25:33 | 43.25045 | 20.40844 | 14° | 18km/h | 25758m | 6.9m/s | -45.7°C | 1.2% | 0hPa | 0V | 00:00:00 | 00:00:00 | 00:00:00 | |
| LZ4TU-5 | 2026-09-05 12:25:28 | 43.25026 | 20.40830 | 13° | 16km/h | 25729m | 5.9m/s | -46.2°C | 1.2% | 0hPa | 0V | 00:00:00 | 00:00:00 | 00:00:00 | |
| LZ4TU-5 | 2026-09-05 12:23:35 | 43.24338 | 20.40741 | 19° | 24km/h | 25022m | 5.6m/s | -50.7°C | 1.2% | 0hPa | 0V | 00:00:00 | 00:00:00 | 00:00:00 | |
| LZ4TU-5 | 2026-09-05 12:23:30 | 43.24313 | 20.40715 | 49° | 15km/h | 24994m | 5.6m/s | -50.8°C | 1.2% | 0hPa | 0V | 00:00:00 | 00:00:00 | 00:00:00 | |
| LZ4TU-5 | 2026-09-05 12:23:26 | 43.24277 | 20.40705 | 9° | 37km/h | 24963m | 6.7m/s | -50.9°C | 1.3% | 0hPa | 0V | 00:00:00 | 00:00:00 | 00:00:00 | |
| LZ4TU-5 | 2026-09-05 12:21:18 | 43.23590 | 20.40685 | 344° | 29km/h | 24167m | 4.6m/s | -52.6°C | 1.1% | 0hPa | 0V | 00:00:00 | 00:00:00 | 00:00:00 | |
| LZ4TU-5 | 2026-09-05 12:21:14 | 43.23582 | 20.40693 | 168° | 13km/h | 24138m | 8.1m/s | -52.5°C | 1.1% | 0hPa | 0V | 00:00:00 | 00:00:00 | 00:00:00 | |
| LZ4TU-5 | 2026-09-05 12:19:06 | 43.23618 | 20.40374 | 209° | 15km/h | 23327m | 9.0m/s | -54.2°C | 1.1% | 0hPa | 0V | 00:00:00 | 00:00:00 | 00:00:00 | |
| LZ4TU-5 | 2026-09-05 12:16:49 | 43.23445 | 20.39866 | 1° | 7km/h | 22437m | 6.9m/s | -54.4°C | 1.2% | 0hPa | 0V | 00:00:00 | 00:00:00 | 00:00:00 | |
| LZ4TU-5 | 2026-09-05 12:16:44 | 43.23440 | 20.39843 | 65° | 9km/h | 22407m | 5.5m/s | -54.4°C | 1.3% | 0hPa | 0V | 00:00:00 | 00:00:00 | 00:00:00 | |
| LZ4TU-5 | 2026-09-05 12:14:37 | 43.23438 | 20.39458 | 49° | 15km/h | 21629m | 4.9m/s | -53.7°C | 0.9% | 0hPa | 0V | 00:00:00 | 00:00:00 | 00:00:00 | |
| LZ4TU-5 | 2026-09-05 12:14:33 | 43.23414 | 20.39450 | 11° | 33km/h | 21602m | 7.3m/s | -53.8°C | 0.9% | 0hPa | 0V | 00:00:00 | 00:00:00 | 00:00:00 | |
| LZ4TU-5 | 2026-09-05 12:14:19 | 43.23342 | 20.39411 | 28° | 35km/h | 21519m | 5.8m/s | -53.6°C | 0.9% | 0hPa | 0V | 00:00:00 | 00:00:00 | 00:00:00 | |
| LZ4TU-5 | 2026-09-05 12:11:35 | 43.22872 | 20.39017 | 65° | 18km/h | 20554m | 5.9m/s | -55.8°C | 0.7% | 0hPa | 0V | 00:00:00 | 00:00:00 | 00:00:00 | |
| LZ4TU-5 | 2026-09-05 12:11:30 | 43.22853 | 20.38989 | 62° | 24km/h | 20524m | 5.9m/s | -55.8°C | 0% | 0hPa | 0V | 00:00:00 | 00:00:00 | 00:00:00 | |
| LZ4TU-5 | 2026-09-05 12:09:41 | 43.22523 | 20.38240 | 86° | 27km/h | 19879m | 5.4m/s | -56.9°C | 0.9% | 0hPa | 0V | 00:00:00 | 00:00:00 | 00:00:00 | |
| LZ4TU-5 | 2026-09-05 12:09:37 | 43.22511 | 20.38197 | 51° | 35km/h | 19856m | 5.6m/s | -56.9°C | 0.9% | 0hPa | 0V | 00:00:00 | 00:00:00 | 00:00:00 | |
| LZ4TU-5 | 2026-09-05 12:07:21 | 43.22253 | 20.37068 | 99° | 35km/h | 19065m | 6.1m/s | -57.5°C | 1.0% | 0hPa | 0V | 00:00:00 | 00:00:00 | 00:00:00 | |
| LZ4TU-5 | 2026-09-05 12:07:16 | 43.22262 | 20.37011 | 136° | 24km/h | 19038m | 5.7m/s | -57.5°C | 0% | 0hPa | 0V | 00:00:00 | 00:00:00 | 00:00:00 | |
| LZ4TU-5 | 2026-09-05 12:05:02 | 43.22158 | 20.35724 | 10° | 29km/h | 18254m | 5.2m/s | -58.2°C | 0% | 0hPa | 0V | 00:00:00 | 00:00:00 | 00:00:00 | |
| LZ4TU-5 | 2026-09-05 12:04:57 | 43.22132 | 20.35710 | 53° | 31km/h | 18233m | 5.9m/s | -58.1°C | 1.5% | 0hPa | 0V | 00:00:00 | 00:00:00 | 00:00:00 | |
| LZ4TU-5 | 2026-09-05 12:02:49 | 43.22044 | 20.34687 | 85° | 47km/h | 17498m | 5.7m/s | -59.4°C | 2.3% | 0hPa | 0V | 00:00:00 | 00:00:00 | 00:00:00 | |
| LZ4TU-5 | 2026-09-05 12:02:45 | 43.22039 | 20.34626 | 82° | 37km/h | 17474m | 6.5m/s | -59.4°C | 2.3% | 0hPa | 0V | 00:00:00 | 00:00:00 | 00:00:00 | |
| LZ4TU-5 | 2026-09-05 12:00:24 | 43.21818 | 20.33021 | 50° | 38km/h | 16700m | 5.6m/s | -60.4°C | 3.1% | 0hPa | 0V | 00:00:00 | 00:00:00 | 00:00:00 | |
| LZ4TU-5 | 2026-09-05 12:00:19 | 43.21788 | 20.32958 | 71° | 33km/h | 16674m | 4.6m/s | -60.3°C | 3.3% | 0hPa | 0V | 00:00:00 | 00:00:00 | 00:00:00 | |
| LZ4TU-5 | 2026-09-05 11:57:05 | 43.21745 | 20.30214 | 84° | 49km/h | 15628m | 5.3m/s | -61.2°C | 6.7% | 0hPa | 0V | 00:00:00 | 00:00:00 | 00:00:00 | |
| LZ4TU-5 | 2026-09-05 11:56:56 | 43.21744 | 20.30075 | 86° | 42km/h | 15583m | 7.0m/s | -60.8°C | 6.8% | 0hPa | 0V | 00:00:00 | 00:00:00 | 00:00:00 | |
| LZ4TU-5 | 2026-09-05 11:53:49 | 43.22157 | 20.26801 | 96° | 69km/h | 14540m | 4.8m/s | -61.5°C | 17.8% | 0hPa | 0V | 00:00:00 | 00:00:00 | 00:00:00 | |
| LZ4TU-5 | 2026-09-05 11:53:45 | 43.22175 | 20.26718 | 118° | 51km/h | 14519m | 4.9m/s | -61.5°C | 18.1% | 0hPa | 0V | 00:00:00 | 00:00:00 | 00:00:00 | |
| LZ4TU-5 | 2026-09-05 11:51:48 | 43.22412 | 20.24287 | 82° | 46km/h | 13802m | 4.9m/s | -64.7°C | 26.7% | 0hPa | 0V | 00:00:00 | 00:00:00 | 00:00:00 | |
| LZ4TU-5 | 2026-09-05 11:51:44 | 43.22410 | 20.24210 | 88° | 64km/h | 13781m | 6.2m/s | -64.6°C | 26.8% | 0hPa | 0V | 00:00:00 | 00:00:00 | 00:00:00 | |
| LZ4TU-5 | 2026-09-05 11:49:07 | 43.22310 | 20.21546 | 82° | 46km/h | 12831m | 4.9m/s | -59.0°C | 22.9% | 0hPa | 0V | 00:00:00 | 00:00:00 | 00:00:00 | |
| LZ4TU-5 | 2026-09-05 11:49:02 | 43.22309 | 20.21491 | 97° | 42km/h | 12810m | 5.9m/s | -58.8°C | 22.7% | 0hPa | 0V | 00:00:00 | 00:00:00 | 00:00:00 | |
| LZ4TU-5 | 2026-09-05 11:47:17 | 43.22113 | 20.19828 | 75° | 64km/h | 12184m | 8.7m/s | -54.1°C | 23.4% | 0hPa | 0V | 00:00:00 | 00:00:00 | 00:00:00 | |
| LZ4TU-5 | 2026-09-05 11:47:12 | 43.22091 | 20.19762 | 50° | 31km/h | 12149m | 6.7m/s | -53.9°C | 23.4% | 0hPa | 0V | 00:00:00 | 00:00:00 | 00:00:00 | |
| LZ4TU-5 | 2026-09-05 11:47:04 | 43.22056 | 20.19619 | 86° | 47km/h | 12104m | 5.3m/s | -53.5°C | 23.6% | 0hPa | 0V | 00:00:00 | 00:00:00 | 00:00:00 | |
| LZ4TU-5 | 2026-09-05 11:46:58 | 43.22032 | 20.19532 | 72° | 60km/h | 12070m | 4.5m/s | -53.4°C | 23.8% | 0hPa | 0V | 00:00:00 | 00:00:00 | 00:00:00 | |
| LZ4TU-5 | 2026-09-05 11:46:50 | 43.22019 | 20.19383 | 90° | 57km/h | 12023m | 5.6m/s | -53.1°C | 23.7% | 0hPa | 0V | 00:00:00 | 00:00:00 | 00:00:00 | |
| LZ4TU-5 | 2026-09-05 11:45:07 | 43.22017 | 20.17660 | 103° | 51km/h | 11477m | 6.5m/s | -49.8°C | 24.4% | 0hPa | 0V | 00:00:00 | 00:00:00 | 00:00:00 | |
| LZ4TU-5 | 2026-09-05 11:43:21 | 43.22167 | 20.15905 | 102° | 58km/h | 10845m | 6.3m/s | -44.9°C | 21.5% | 0hPa | 0V | 00:00:00 | 00:00:00 | 00:00:00 | |
| LZ4TU-5 | 2026-09-05 11:43:17 | 43.22173 | 20.15834 | 88° | 42km/h | 10825m | 3.4m/s | -44.7°C | 21.4% | 0hPa | 0V | 00:00:00 | 00:00:00 | 00:00:00 | |
| LZ4TU-5 | 2026-09-05 11:43:12 | 43.22181 | 20.15765 | 107° | 51km/h | 10799m | 4.6m/s | -44.5°C | 21.2% | 0hPa | 0V | 00:00:00 | 00:00:00 | 00:00:00 | |
| LZ4TU-5 | 2026-09-05 11:43:10 | 43.22192 | 20.15692 | 100° | 58km/h | 10779m | 6.0m/s | -44.4°C | 21.0% | 0hPa | 0V | 00:00:00 | 00:00:00 | 00:00:00 | |
| LZ4TU-5 | 2026-09-05 11:41:30 | 43.22489 | 20.14138 | 94° | 46km/h | 10225m | 4.6m/s | -39.8°C | 17.4% | 0hPa | 0V | 00:00:00 | 00:00:00 | 00:00:00 | |
| LZ4TU-5 | 2026-09-05 11:41:26 | 43.22501 | 20.14090 | 126° | 47km/h | 10205m | 5.4m/s | -39.6°C | 17.2% | 0hPa | 0V | 00:00:00 | 00:00:00 | 00:00:00 | |
| LZ4TU-5 | 2026-09-05 11:39:47 | 43.22961 | 20.12527 | 97° | 53km/h | 9635m | 6.7m/s | -34.4°C | 13.5% | 0hPa | 0V | 00:00:00 | 00:00:00 | 00:00:00 | |
| LZ4TU-5 | 2026-09-05 11:39:42 | 43.22970 | 20.12440 | 105° | 46km/h | 9607m | 3.8m/s | -34.1°C | 13.3% | 0hPa | 0V | 00:00:00 | 00:00:00 | 00:00:00 |